首页
METAR-TAF:

METAR-TAF

机场 :

吉布地, 吉布提

吉布提-安布利国际机场

纬度: 11-33N, 经度: 043-10E, 海拔: 49米

当前天气观测

该预报发布于15小时和40分钟前的10:00 UTC
风速10节,风向
温度 28°C
湿度 55%
气压 1015 hPa
能见度10公里或以上
少量云层高于2000英尺

METAR: HDAM 181000Z 08010KT 9999 FEW020 28/18 Q1015

时间: 04:40 (01:40 UTC)

预报

该预报发布于14小时和40分钟前的11:00 UTC
预报有效从18日的 12点(UTC)到 19日的 12点(UTC)
风速12节,风向
能见度10公里或以上
散云层高于2300英尺
成为
从 18日的 15点(UTC)到 18日的 18点(UTC)
风速5节,风向多变
少量云层高于2000英尺
成为
从 19日的 00点(UTC)到 19日的 03点(UTC)
风速节,风向
散云层高于2000英尺
散云层高于3000英尺
成为
从 19日的 03点(UTC)到 19日的 06点(UTC)
风速3节,风向多变
散云层高于2000英尺
多云层高于3000英尺
小阵雨

TAF: HDAM 181100Z 1812/1912 10012KT 9999 SCT023 BECMG 1815/1818 VRB05KT FEW020 BECMG 1900/1903 00000KT SCT020 SCT030 BECMG 1903/1906 VRB03KT -SHRA SCT020 BKN030

超过4000个机场的气象观测和天气预报(METAR&TAF报告)。

可查询的气象台以黄色和红色小点在地图上表示。

将鼠标移到小点上方,可查看气象台名称。

然后点击查看天气观测和预报。

如需切换地图:点击带黑十字的绿色按钮放大地图;点击带横线的绿色按钮缩小地图;或者点击绿色箭头查看邻近地区的地图。


METAR-TAF: